Time;durP1;ratioP1;P1;durP2;ratioP2;P2;SDS_P1;SDS_P2;PMS_P1;PMS_P2;Temp;Humidity;BMP_temperature;BMP_pressure;BME280_temperature;BME280_humidity;BME280_pressure;Samples;Min_cycle;Max_cycle;Signal;HPM_P1;HPM_P2
2023/10/14 00:01:15;;;;;;;;;;;;;;;13.25;100.00;100116.88;5019666;28;19927;-73
2023/10/14 00:03:45;;;;;;;;;;;;;;;13.24;100.00;100127.84;5032972;28;19923;-75
2023/10/14 00:06:13;;;;;;;;;;;;;;;13.14;100.00;100136.84;5019331;28;19917;-74
2023/10/14 00:11:35;;;;;;;;;;;;;;;13.13;100.00;100145.94;5020321;28;20025;-75
2023/10/14 00:14:02;;;;;;;;;;;;;;;13.17;100.00;100160.78;5035766;28;20436;-74
2023/10/14 00:18:55;;;;;;;;;;;;;;;13.25;100.00;100160.03;5034274;28;20267;-74
2023/10/14 00:21:20;;;;;;;;;;;;;;;13.24;100.00;100166.44;5038244;28;19921;-75
2023/10/14 00:23:46;;;;;;;;;;;;;;;13.18;100.00;100172.44;5037653;28;19943;-75
2023/10/14 00:26:14;;;;;;;;;;;;;;;13.20;100.00;100163.19;5036577;28;20504;-74
2023/10/14 00:28:41;;;;;;;;;;;;;;;13.18;100.00;100169.75;5022389;28;19924;-75
2023/10/14 00:31:06;;;;;;;;;;;;;;;13.14;100.00;100176.44;5032688;28;20007;-75
2023/10/14 00:33:35;;;;;;;;;;;;;;;13.16;100.00;100188.75;5031095;28;20452;-75
2023/10/14 00:36:00;;;;;;;;;;;;;;;13.11;100.00;100172.19;5033319;28;19928;-75
2023/10/14 00:38:27;;;;;;;;;;;;;;;12.94;100.00;100179.25;5034199;28;20483;-75
2023/10/14 00:40:52;;;;;;;;;;;;;;;12.88;100.00;100172.63;5032286;28;21218;-75
2023/10/14 00:43:17;;;;;;;;;;;;;;;12.80;100.00;100188.69;5023437;28;20972;-75
2023/10/14 00:45:45;;;;;;;;;;;;;;;12.72;100.00;100200.19;5035289;28;19998;-75
2023/10/14 00:48:13;;;;;;;;;;;;;;;12.74;100.00;100206.28;5020317;28;20503;-75
2023/10/14 00:50:41;;;;;;;;;;;;;;;12.78;100.00;100189.84;5018172;28;20370;-74
2023/10/14 00:53:06;;;;;;;;;;;;;;;12.76;100.00;100214.25;5054831;28;19966;-75
2023/10/14 00:56:18;;;;;;;;;;;;;;;12.83;100.00;100227.94;5037041;28;19928;-74
2023/10/14 00:58:21;;;;;;;;;;;;;;;12.79;100.00;100227.41;5027160;28;20008;-74
2023/10/14 01:00:59;;;;;;;;;;;;;;;12.87;100.00;100238.28;5036600;28;19928;-74
2023/10/14 01:03:25;;;;;;;;;;;;;;;12.90;100.00;100246.06;5036917;28;19924;-75
2023/10/14 01:05:50;;;;;;;;;;;;;;;12.92;100.00;100259.41;5029946;28;20283;-75
2023/10/14 01:08:17;;;;;;;;;;;;;;;12.92;100.00;100258.53;5050121;28;19924;-75
2023/10/14 01:10:42;;;;;;;;;;;;;;;12.88;100.00;100266.91;5029539;28;19927;-74
2023/10/14 01:13:13;;;;;;;;;;;;;;;12.86;100.00;100266.22;5022863;28;19921;-75
2023/10/14 01:15:43;;;;;;;;;;;;;;;12.81;100.00;100267.66;5057484;28;19927;-76
2023/10/14 01:18:11;;;;;;;;;;;;;;;12.64;100.00;100278.22;5039887;28;20358;-72
2023/10/14 01:20:37;;;;;;;;;;;;;;;12.51;100.00;100294.69;5034045;28;19943;-72
2023/10/14 01:23:07;;;;;;;;;;;;;;;12.38;100.00;100294.16;5038413;28;19913;-74
2023/10/14 01:25:32;;;;;;;;;;;;;;;12.43;100.00;100292.75;5038985;28;20027;-75
2023/10/14 01:27:59;;;;;;;;;;;;;;;12.39;100.00;100290.47;5024420;28;20022;-74
2023/10/14 01:30:32;;;;;;;;;;;;;;;12.26;100.00;100274.63;5037312;28;19939;-76
2023/10/14 01:33:08;;;;;;;;;;;;;;;12.35;100.00;100300.69;5021429;28;19924;-76
2023/10/14 01:35:40;;;;;;;;;;;;;;;12.23;100.00;100301.81;5037064;28;19920;-74
2023/10/14 01:38:05;;;;;;;;;;;;;;;12.29;100.00;100312.00;5056912;28;20326;-74
2023/10/14 01:40:48;;;;;;;;;;;;;;;12.22;100.00;100325.22;5019509;28;19925;-74
2023/10/14 01:43:15;;;;;;;;;;;;;;;12.21;100.00;100336.09;5033933;28;20216;-74
2023/10/14 01:45:47;;;;;;;;;;;;;;;12.15;100.00;100338.38;5017879;28;19964;-75
2023/10/14 01:48:13;;;;;;;;;;;;;;;12.11;100.00;100350.44;5035729;28;20217;-73
2023/10/14 01:51:03;;;;;;;;;;;;;;;12.14;100.00;100335.81;5037539;28;20079;-74
2023/10/14 01:53:31;;;;;;;;;;;;;;;12.13;100.00;100361.91;5034425;28;20002;-75
2023/10/14 01:56:01;;;;;;;;;;;;;;;12.01;100.00;100363.00;5037079;28;19917;-74
2023/10/14 01:58:29;;;;;;;;;;;;;;;12.00;100.00;100375.63;5034917;28;19921;-74
2023/10/14 02:01:04;;;;;;;;;;;;;;;11.93;100.00;100381.66;5031899;28;20465;-75
2023/10/14 02:03:33;;;;;;;;;;;;;;;11.96;100.00;100395.69;5037709;28;19921;-75
2023/10/14 02:05:58;;;;;;;;;;;;;;;11.92;100.00;100406.88;5036745;28;19920;-74
2023/10/14 02:08:23;;;;;;;;;;;;;;;11.91;100.00;100411.41;5037552;28;20276;-74
2023/10/14 02:10:53;;;;;;;;;;;;;;;11.84;100.00;100412.94;5034957;28;19925;-73
2023/10/14 02:13:20;;;;;;;;;;;;;;;11.88;100.00;100418.91;5037337;28;19947;-74
2023/10/14 02:15:49;;;;;;;;;;;;;;;11.82;100.00;100428.34;5036178;28;20428;-73
2023/10/14 02:18:21;;;;;;;;;;;;;;;11.80;100.00;100428.50;5033344;28;19924;-72
2023/10/14 02:23:44;;;;;;;;;;;;;;;11.80;100.00;100449.16;4998296;28;19924;-72
2023/10/14 02:26:33;;;;;;;;;;;;;;;11.81;100.00;100453.56;5034755;28;20359;-72
2023/10/14 02:28:58;;;;;;;;;;;;;;;11.77;100.00;100465.59;5033594;28;19994;-73
2023/10/14 02:33:52;;;;;;;;;;;;;;;11.72;100.00;100473.22;5034263;28;20027;-72
2023/10/14 02:36:17;;;;;;;;;;;;;;;11.74;100.00;100477.47;5034648;28;19924;-73
2023/10/14 02:38:53;;;;;;;;;;;;;;;11.72;100.00;100487.50;5037414;28;19913;-72
2023/10/14 02:41:19;;;;;;;;;;;;;;;11.75;100.00;100495.31;4995052;28;19936;-72
2023/10/14 02:43:44;;;;;;;;;;;;;;;11.69;100.00;100511.97;5011153;28;19933;-72
2023/10/14 02:46:19;;;;;;;;;;;;;;;11.63;100.00;100515.22;5014371;28;19921;-72
2023/10/14 02:48:54;;;;;;;;;;;;;;;11.56;100.00;100525.63;5015827;28;20035;-73
2023/10/14 02:51:35;;;;;;;;;;;;;;;11.54;100.00;100531.16;5015282;28;19925;-72
2023/10/14 02:54:15;;;;;;;;;;;;;;;11.42;100.00;100539.44;5012691;28;20319;-73
2023/10/14 02:59:19;;;;;;;;;;;;;;;10.96;100.00;100502.09;5012878;28;19961;-73
2023/10/14 03:01:59;;;;;;;;;;;;;;;11.18;100.00;100544.09;5014596;28;20095;-73
2023/10/14 03:04:28;;;;;;;;;;;;;;;11.04;100.00;100557.84;5009699;28;20033;-73
2023/10/14 03:06:53;;;;;;;;;;;;;;;10.98;100.00;100569.97;5012164;28;20482;-73
2023/10/14 03:09:19;;;;;;;;;;;;;;;10.93;100.00;100574.88;5014274;28;19928;-73
2023/10/14 03:11:47;;;;;;;;;;;;;;;10.92;100.00;100579.38;5015704;28;19979;-75
2023/10/14 03:14:13;;;;;;;;;;;;;;;10.88;100.00;100586.00;5006443;28;20014;-73
2023/10/14 03:16:38;;;;;;;;;;;;;;;10.79;100.00;100601.03;5007141;28;20000;-73
2023/10/14 03:19:03;;;;;;;;;;;;;;;10.80;100.00;100600.06;5011892;28;19963;-73
2023/10/14 03:21:30;;;;;;;;;;;;;;;10.71;100.00;100611.59;5008691;28;19972;-73
2023/10/14 03:23:57;;;;;;;;;;;;;;;10.72;100.00;100615.97;5006871;28;19921;-73
2023/10/14 03:26:27;;;;;;;;;;;;;;;10.63;100.00;100624.78;4998630;28;19959;-72
2023/10/14 03:28:52;;;;;;;;;;;;;;;10.54;100.00;100622.81;5014780;28;19947;-73
2023/10/14 03:31:19;;;;;;;;;;;;;;;10.56;100.00;100631.59;4994609;28;20488;-73
2023/10/14 03:33:44;;;;;;;;;;;;;;;10.41;100.00;100631.88;5012642;28;20412;-73
2023/10/14 03:36:15;;;;;;;;;;;;;;;10.42;100.00;100638.09;5014947;28;19921;-73
2023/10/14 03:38:41;;;;;;;;;;;;;;;10.35;100.00;100643.91;4996434;28;19960;-76
2023/10/14 03:43:43;;;;;;;;;;;;;;;10.29;100.00;100651.59;5032195;28;19927;-74
2023/10/14 03:46:11;;;;;;;;;;;;;;;10.20;100.00;100653.19;5015682;28;19920;-73
2023/10/14 03:48:45;;;;;;;;;;;;;;;10.28;100.00;100666.88;5031204;28;19929;-74
2023/10/14 03:51:11;;;;;;;;;;;;;;;10.07;100.00;100669.41;5031778;28;19920;-72
2023/10/14 03:53:36;;;;;;;;;;;;;;;10.12;100.00;100672.59;5028143;28;19920;-75
2023/10/14 03:56:01;;;;;;;;;;;;;;;10.04;100.00;100680.38;5033886;28;19921;-75
2023/10/14 03:58:30;;;;;;;;;;;;;;;10.02;100.00;100685.00;5031112;28;19957;-74
2023/10/14 04:00:57;;;;;;;;;;;;;;;10.00;100.00;100686.94;5026476;28;19927;-76
2023/10/14 04:03:40;;;;;;;;;;;;;;;10.01;100.00;100688.66;5014463;28;20139;-74
2023/10/14 04:06:08;;;;;;;;;;;;;;;9.99;100.00;100690.59;5032927;28;20301;-75
2023/10/14 04:08:39;;;;;;;;;;;;;;;9.99;100.00;100699.53;5031669;28;19932;-78
2023/10/14 04:11:14;;;;;;;;;;;;;;;10.00;100.00;100697.69;5032256;28;20027;-75
2023/10/14 04:13:58;;;;;;;;;;;;;;;10.02;100.00;100707.34;5031087;28;20364;-74
2023/10/14 04:16:27;;;;;;;;;;;;;;;9.99;100.00;100717.44;5032047;28;20425;-74
2023/10/14 04:18:59;;;;;;;;;;;;;;;9.98;100.00;100732.69;5032699;28;19952;-75
2023/10/14 04:21:26;;;;;;;;;;;;;;;9.98;100.00;100734.50;5028814;28;19921;-75
2023/10/14 04:24:08;;;;;;;;;;;;;;;9.89;100.00;100742.28;5032602;28;19927;-75
2023/10/14 04:26:35;;;;;;;;;;;;;;;9.90;100.00;100743.13;5029877;28;19921;-75
2023/10/14 04:29:02;;;;;;;;;;;;;;;9.92;100.00;100748.41;5027059;28;20397;-75
2023/10/14 04:31:39;;;;;;;;;;;;;;;9.89;100.00;100752.16;5030751;28;20011;-76
2023/10/14 04:34:08;;;;;;;;;;;;;;;9.81;100.00;100751.88;5015864;28;19932;-76
2023/10/14 04:36:37;;;;;;;;;;;;;;;9.75;100.00;100754.06;5032209;28;19921;-76
2023/10/14 04:39:15;;;;;;;;;;;;;;;9.82;100.00;100764.31;5018717;28;20319;-75
2023/10/14 04:41:50;;;;;;;;;;;;;;;9.74;100.00;100770.25;5034740;28;19928;-76
2023/10/14 04:44:21;;;;;;;;;;;;;;;9.72;100.00;100769.50;5025616;28;19920;-75
2023/10/14 04:46:54;;;;;;;;;;;;;;;9.70;100.00;100782.19;5033306;28;19920;-75
2023/10/14 04:49:29;;;;;;;;;;;;;;;9.72;100.00;100788.28;5035300;28;19929;-75
2023/10/14 04:51:58;;;;;;;;;;;;;;;9.68;100.00;100784.13;5036647;28;19924;-75
2023/10/14 04:54:24;;;;;;;;;;;;;;;9.67;100.00;100790.44;5039516;28;20118;-74
2023/10/14 04:56:49;;;;;;;;;;;;;;;9.62;100.00;100801.53;5039173;28;19924;-75
2023/10/14 04:59:19;;;;;;;;;;;;;;;9.66;100.00;100808.38;5035504;28;19928;-75
2023/10/14 05:01:48;;;;;;;;;;;;;;;9.61;100.00;100807.84;5036964;28;19920;-75
2023/10/14 05:04:13;;;;;;;;;;;;;;;9.57;100.00;100814.41;5053563;28;19920;-75
2023/10/14 05:06:41;;;;;;;;;;;;;;;9.47;100.00;100811.56;5056165;28;20036;-76
2023/10/14 05:09:25;;;;;;;;;;;;;;;9.42;100.00;100829.78;5038266;28;19924;-75
2023/10/14 05:11:50;;;;;;;;;;;;;;;9.43;100.00;100839.53;5058936;28;20393;-75
2023/10/14 05:14:15;;;;;;;;;;;;;;;9.41;100.00;100838.78;5039644;28;19917;-75
2023/10/14 05:16:55;;;;;;;;;;;;;;;9.35;100.00;100850.81;5036683;28;19952;-75
2023/10/14 05:19:30;;;;;;;;;;;;;;;9.35;100.00;100850.81;5053261;28;19981;-74
2023/10/14 05:24:29;;;;;;;;;;;;;;;9.14;100.00;100861.25;5049440;28;19943;-74
2023/10/14 05:27:01;;;;;;;;;;;;;;;9.14;100.00;100867.50;5056513;28;20283;-75
2023/10/14 05:29:30;;;;;;;;;;;;;;;9.03;100.00;100874.56;5034003;28;19928;-75
2023/10/14 05:32:10;;;;;;;;;;;;;;;9.09;100.00;100876.81;5056881;28;20039;-74
2023/10/14 05:34:37;;;;;;;;;;;;;;;9.11;100.00;100889.13;5038207;28;19924;-74
2023/10/14 05:37:03;;;;;;;;;;;;;;;9.13;100.00;100897.06;5035325;28;19917;-74
2023/10/14 05:39:28;;;;;;;;;;;;;;;9.15;100.00;100896.00;5034616;28;20413;-74
2023/10/14 05:41:58;;;;;;;;;;;;;;;9.16;100.00;100902.19;5055095;28;20008;-75
2023/10/14 05:44:29;;;;;;;;;;;;;;;9.16;100.00;100904.88;5054506;28;19916;-74
2023/10/14 05:46:54;;;;;;;;;;;;;;;9.17;100.00;100909.25;5055688;28;19944;-73
2023/10/14 05:49:24;;;;;;;;;;;;;;;9.17;100.00;100911.09;5054073;28;19964;-76
2023/10/14 05:51:49;;;;;;;;;;;;;;;9.17;100.00;100911.09;5050349;28;19925;-74
2023/10/14 05:54:14;;;;;;;;;;;;;;;9.20;100.00;100919.75;5054297;28;19959;-73
2023/10/14 05:56:42;;;;;;;;;;;;;;;9.20;100.00;100922.44;5034364;28;19916;-74
2023/10/14 05:59:07;;;;;;;;;;;;;;;9.19;100.00;100925.25;5039419;28;19920;-74
2023/10/14 06:01:35;;;;;;;;;;;;;;;9.25;100.00;100933.69;5054871;28;19923;-75
2023/10/14 06:04:02;;;;;;;;;;;;;;;9.27;100.00;100930.94;5055593;28;20656;-74
2023/10/14 06:06:27;;;;;;;;;;;;;;;9.19;100.00;100936.81;5057899;28;19943;-75
2023/10/14 06:08:53;;;;;;;;;;;;;;;9.06;100.00;100946.69;5035001;28;20357;-74
2023/10/14 06:11:18;;;;;;;;;;;;;;;9.17;100.00;100943.25;5052025;28;19931;-74
2023/10/14 06:13:43;;;;;;;;;;;;;;;9.12;100.00;100957.81;5053820;28;19924;-73
2023/10/14 06:16:09;;;;;;;;;;;;;;;9.17;100.00;100964.69;5034819;28;19921;-74
2023/10/14 06:18:35;;;;;;;;;;;;;;;9.18;100.00;100972.59;5036395;28;20010;-73
2023/10/14 06:21:00;;;;;;;;;;;;;;;9.13;100.00;100983.63;5054254;28;20007;-74
2023/10/14 06:23:28;;;;;;;;;;;;;;;9.19;100.00;100987.69;5055824;28;20022;-73
2023/10/14 06:25:56;;;;;;;;;;;;;;;9.23;100.00;100997.25;5053048;28;19954;-74
2023/10/14 06:28:22;;;;;;;;;;;;;;;9.23;100.00;100996.41;5055954;28;19968;-74
2023/10/14 06:30:47;;;;;;;;;;;;;;;9.21;100.00;100996.50;5035813;28;20027;-74
2023/10/14 06:33:12;;;;;;;;;;;;;;;9.27;100.00;101006.78;5021005;28;19947;-74
2023/10/14 06:35:43;;;;;;;;;;;;;;;9.31;100.00;101007.41;5049263;28;20314;-73
2023/10/14 06:38:10;;;;;;;;;;;;;;;9.35;100.00;101016.97;5052852;28;19931;-75
2023/10/14 06:40:42;;;;;;;;;;;;;;;9.40;100.00;101016.66;5055550;28;19967;-73
2023/10/14 06:43:09;;;;;;;;;;;;;;;9.40;100.00;101030.91;5052977;28;19920;-75
2023/10/14 06:45:35;;;;;;;;;;;;;;;9.47;100.00;101025.97;5020683;28;20007;-75
2023/10/14 06:48:03;;;;;;;;;;;;;;;9.50;100.00;101027.59;5034140;28;20433;-75
2023/10/14 06:50:29;;;;;;;;;;;;;;;9.53;100.00;101032.75;5051578;28;19928;-74
2023/10/14 06:53:01;;;;;;;;;;;;;;;9.53;100.00;101030.91;5036529;28;19928;-75
2023/10/14 06:55:27;;;;;;;;;;;;;;;9.58;100.00;101046.66;5052462;28;19924;-74
2023/10/14 06:57:53;;;;;;;;;;;;;;;9.60;100.00;101039.34;5032502;28;20402;-74
2023/10/14 07:00:25;;;;;;;;;;;;;;;9.65;100.00;101049.78;5053764;28;19924;-75
2023/10/14 07:02:51;;;;;;;;;;;;;;;9.68;100.00;101052.22;5055940;28;19920;-75
2023/10/14 07:05:19;;;;;;;;;;;;;;;9.73;100.00;101050.06;5038050;28;20137;-74
2023/10/14 07:07:44;;;;;;;;;;;;;;;9.81;100.00;101057.56;5037529;28;19920;-75
2023/10/14 07:10:10;;;;;;;;;;;;;;;9.85;100.00;101065.31;5034750;28;19924;-73
2023/10/14 07:12:37;;;;;;;;;;;;;;;9.93;100.00;101067.44;5039407;28;19920;-75
2023/10/14 07:15:05;;;;;;;;;;;;;;;9.96;100.00;101066.34;5052434;28;19927;-76
2023/10/14 07:17:31;;;;;;;;;;;;;;;9.99;100.00;101079.53;5055013;28;19924;-74
2023/10/14 07:19:56;;;;;;;;;;;;;;;10.02;100.00;101069.47;5051929;28;19925;-75
2023/10/14 07:22:21;;;;;;;;;;;;;;;10.05;100.00;101074.63;5052905;28;19935;-73
2023/10/14 07:24:47;;;;;;;;;;;;;;;10.16;100.00;101086.38;5052028;28;19920;-73
2023/10/14 07:27:13;;;;;;;;;;;;;;;10.21;100.00;101087.75;5049966;28;20336;-75
2023/10/14 07:29:39;;;;;;;;;;;;;;;10.27;100.00;101090.97;5036686;28;20426;-76
2023/10/14 07:32:04;;;;;;;;;;;;;;;10.32;100.00;101094.19;5019226;28;20426;-75
2023/10/14 07:34:30;;;;;;;;;;;;;;;10.32;100.00;101095.06;5033914;28;20432;-75
2023/10/14 07:36:55;;;;;;;;;;;;;;;10.45;100.00;101095.03;5053355;28;20023;-74
2023/10/14 07:39:29;;;;;;;;;;;;;;;10.68;100.00;101107.72;5053295;28;20112;-74
2023/10/14 07:41:55;;;;;;;;;;;;;;;10.78;100.00;101112.28;5052451;28;20474;-74
2023/10/14 07:44:22;;;;;;;;;;;;;;;10.93;100.00;101114.81;5052415;28;19942;-73
2023/10/14 07:46:48;;;;;;;;;;;;;;;10.83;100.00;101109.28;5019102;28;19921;-74
2023/10/14 07:49:14;;;;;;;;;;;;;;;10.84;100.00;101115.50;5050146;28;19973;-74
2023/10/14 07:51:39;;;;;;;;;;;;;;;10.88;100.00;101116.97;5030139;28;20014;-74
2023/10/14 07:54:06;;;;;;;;;;;;;;;10.92;100.00;101126.53;5035386;28;19927;-73
2023/10/14 07:56:32;;;;;;;;;;;;;;;11.02;100.00;101122.16;5050897;28;19920;-74
2023/10/14 07:58:57;;;;;;;;;;;;;;;11.07;100.00;101125.38;5048664;28;19924;-75
2023/10/14 08:01:23;;;;;;;;;;;;;;;11.09;100.00;101127.97;5050519;28;19962;-74
2023/10/14 08:03:48;;;;;;;;;;;;;;;11.15;100.00;101132.00;5050672;28;20017;-74
2023/10/14 08:06:17;;;;;;;;;;;;;;;11.22;100.00;101141.31;5035049;28;19921;-74
2023/10/14 08:08:47;;;;;;;;;;;;;;;11.29;100.00;101139.00;5052964;28;19940;-73
2023/10/14 08:11:12;;;;;;;;;;;;;;;11.35;100.00;101147.47;5050312;28;20355;-73
2023/10/14 08:13:37;;;;;;;;;;;;;;;11.43;100.00;101156.78;5052035;28;20090;-74
2023/10/14 08:16:07;;;;;;;;;;;;;;;11.51;100.00;101149.00;5033841;28;20114;-74
2023/10/14 08:18:33;;;;;;;;;;;;;;;11.62;100.00;101150.84;5020025;28;19927;-73
2023/10/14 08:20:59;;;;;;;;;;;;;;;11.57;100.00;101147.66;5035051;28;19921;-73
2023/10/14 08:23:25;;;;;;;;;;;;;;;11.64;100.00;101157.81;5058080;28;20015;-75
2023/10/14 08:25:57;;;;;;;;;;;;;;;11.77;100.00;101155.03;5055209;28;20250;-74
2023/10/14 08:28:27;;;;;;;;;;;;;;;11.81;100.00;101158.31;5060229;28;19928;-74
2023/10/14 08:30:52;;;;;;;;;;;;;;;11.99;100.00;101162.31;5022495;28;19927;-75
2023/10/14 08:33:24;;;;;;;;;;;;;;;12.12;100.00;101164.00;5038113;28;19920;-73
2023/10/14 08:35:51;;;;;;;;;;;;;;;12.25;100.00;101167.47;5039753;28;19924;-74
2023/10/14 08:38:23;;;;;;;;;;;;;;;12.27;100.00;101168.19;5039047;28;19967;-75
2023/10/14 08:40:55;;;;;;;;;;;;;;;12.39;100.00;101176.25;5038837;28;20290;-74
2023/10/14 08:43:21;;;;;;;;;;;;;;;12.48;100.00;101177.34;5054799;28;19920;-74
2023/10/14 08:45:49;;;;;;;;;;;;;;;12.54;100.00;101183.13;5050794;28;20035;-75
2023/10/14 08:48:15;;;;;;;;;;;;;;;12.60;100.00;101193.38;5039749;28;19970;-75
2023/10/14 08:50:41;;;;;;;;;;;;;;;12.72;100.00;101187.97;5056832;28;20027;-74
2023/10/14 08:53:07;;;;;;;;;;;;;;;12.80;100.00;101181.97;5057931;28;19963;-74
2023/10/14 08:55:33;;;;;;;;;;;;;;;12.77;100.00;101184.91;5043026;28;19920;-77
2023/10/14 08:58:02;;;;;;;;;;;;;;;12.83;100.00;101200.56;5038343;28;20378;-72
2023/10/14 09:00:29;;;;;;;;;;;;;;;12.76;100.00;101186.75;5039037;28;20421;-72
2023/10/14 09:02:54;;;;;;;;;;;;;;;13.12;100.00;101194.63;5054647;28;20433;-76
2023/10/14 09:05:20;;;;;;;;;;;;;;;13.34;100.00;101210.72;5037869;28;19925;-73
2023/10/14 09:07:46;;;;;;;;;;;;;;;13.24;100.00;101206.22;5036693;28;20333;-71
2023/10/14 09:10:11;;;;;;;;;;;;;;;13.41;100.00;101207.53;5053511;28;19924;-74
2023/10/14 09:12:37;;;;;;;;;;;;;;;13.70;100.00;101213.16;5033471;28;19928;-75
2023/10/14 09:15:03;;;;;;;;;;;;;;;13.95;100.00;101213.75;5045315;28;20338;-75
2023/10/14 09:17:28;;;;;;;;;;;;;;;13.78;100.00;101205.25;5046481;28;19929;-74
2023/10/14 09:19:54;;;;;;;;;;;;;;;13.49;100.00;101176.22;5036211;28;19925;-72
2023/10/14 09:22:29;;;;;;;;;;;;;;;13.90;100.00;101219.53;5035034;28;19964;-74
2023/10/14 09:24:58;;;;;;;;;;;;;;;14.25;100.00;101222.88;5038333;28;20031;-72
2023/10/14 09:27:26;;;;;;;;;;;;;;;14.43;100.00;101212.28;5039701;28;19955;-73
2023/10/14 09:29:51;;;;;;;;;;;;;;;14.58;100.00;101217.31;5036893;28;19936;-74
2023/10/14 09:32:17;;;;;;;;;;;;;;;14.64;100.00;101222.19;5040287;28;19920;-74
2023/10/14 09:34:42;;;;;;;;;;;;;;;14.49;100.00;101219.00;5056419;28;19921;-73
2023/10/14 09:37:13;;;;;;;;;;;;;;;14.33;100.00;101214.09;5036167;28;19966;-73
2023/10/14 09:39:42;;;;;;;;;;;;;;;14.23;100.00;101219.44;5039911;28;20054;-76
2023/10/14 09:42:10;;;;;;;;;;;;;;;14.23;100.00;101216.75;5039727;28;20235;-74
2023/10/14 09:44:35;;;;;;;;;;;;;;;14.30;100.00;101223.31;5043107;28;19920;-73
2023/10/14 09:47:01;;;;;;;;;;;;;;;14.28;100.00;101230.69;5065443;28;19920;-74
2023/10/14 09:49:26;;;;;;;;;;;;;;;14.33;100.00;101216.78;5048386;28;19925;-74
2023/10/14 09:51:53;;;;;;;;;;;;;;;14.22;100.00;101220.44;5025754;28;19943;-74
2023/10/14 09:54:21;;;;;;;;;;;;;;;14.37;100.00;101224.50;5040554;28;19967;-72
2023/10/14 09:56:46;;;;;;;;;;;;;;;14.64;100.00;101224.88;5045627;28;19920;-72
2023/10/14 09:59:12;;;;;;;;;;;;;;;14.78;100.00;101226.38;5046031;28;19920;-73
2023/10/14 10:01:37;;;;;;;;;;;;;;;14.97;100.00;101234.53;5046253;28;19927;-74
2023/10/14 10:04:03;;;;;;;;;;;;;;;15.21;100.00;101236.03;5058773;28;19916;-72
2023/10/14 10:06:48;;;;;;;;;;;;;;;15.30;100.00;101227.03;5046614;28;19931;-77
2023/10/14 10:09:20;;;;;;;;;;;;;;;15.24;100.00;101241.13;5047437;28;19920;-74
2023/10/14 10:11:46;;;;;;;;;;;;;;;15.51;100.00;101238.75;5060039;28;19924;-73
2023/10/14 10:14:12;;;;;;;;;;;;;;;15.61;94.56;101242.31;5039992;28;19928;-73
2023/10/14 10:16:40;;;;;;;;;;;;;;;15.92;95.38;101255.69;5047277;28;20426;-74
2023/10/14 10:19:05;;;;;;;;;;;;;;;16.16;91.78;101254.34;5040949;28;20467;-76
2023/10/14 10:21:31;;;;;;;;;;;;;;;16.40;93.28;101258.47;5061251;28;19993;-74
2023/10/14 10:24:09;;;;;;;;;;;;;;;16.28;87.07;101268.63;5063623;28;19920;-75
2023/10/14 10:26:57;;;;;;;;;;;;;;;16.57;85.76;101265.81;5058687;28;19933;-74
2023/10/14 10:29:23;;;;;;;;;;;;;;;16.34;80.06;101260.75;5047640;28;19924;-72
2023/10/14 10:32:07;;;;;;;;;;;;;;;16.29;79.25;101262.16;5043142;28;19920;-75
2023/10/14 10:34:33;;;;;;;;;;;;;;;16.33;82.06;101272.59;5061047;28;20363;-72
2023/10/14 10:36:59;;;;;;;;;;;;;;;16.37;76.96;101269.59;5060075;28;19982;-72
2023/10/14 10:39:24;;;;;;;;;;;;;;;16.27;74.32;101270.47;5062581;28;19974;-73
2023/10/14 10:41:53;;;;;;;;;;;;;;;15.69;77.93;101274.06;5045415;28;19924;-73
2023/10/14 10:44:19;;;;;;;;;;;;;;;15.40;77.03;101277.63;5038317;28;19932;-73
2023/10/14 10:46:50;;;;;;;;;;;;;;;15.95;76.05;101287.06;5061470;28;19920;-73
2023/10/14 10:49:19;;;;;;;;;;;;;;;16.36;65.29;101284.13;5041867;28;19920;-74
2023/10/14 10:52:08;;;;;;;;;;;;;;;16.86;65.97;101277.50;5037433;28;20434;-73
2023/10/14 10:54:33;;;;;;;;;;;;;;;16.97;64.38;101277.34;5052283;28;20059;-74
2023/10/14 10:57:02;;;;;;;;;;;;;;;16.92;61.92;101285.91;5037478;28;20110;-75
2023/10/14 10:59:27;;;;;;;;;;;;;;;16.80;62.03;101273.53;5052355;28;19942;-73
2023/10/14 11:01:57;;;;;;;;;;;;;;;16.90;61.65;101277.06;5055376;28;20713;-74
2023/10/14 11:04:22;;;;;;;;;;;;;;;16.83;59.24;101278.69;5036616;28;20439;-73
2023/10/14 11:06:47;;;;;;;;;;;;;;;17.38;62.04;101272.38;5056034;28;20101;-73
2023/10/14 11:09:13;;;;;;;;;;;;;;;17.79;63.98;101280.06;5032170;28;19925;-74
2023/10/14 11:11:38;;;;;;;;;;;;;;;18.49;60.87;101278.38;5034912;28;20059;-75
2023/10/14 11:14:14;;;;;;;;;;;;;;;18.66;55.91;101289.38;5055509;28;19916;-74
2023/10/14 11:16:39;;;;;;;;;;;;;;;19.11;56.93;101279.19;5056262;28;19917;-73
2023/10/14 11:19:07;;;;;;;;;;;;;;;19.22;56.76;101295.22;5037301;28;20665;-72
2023/10/14 11:21:32;;;;;;;;;;;;;;;19.26;51.70;101302.03;5055610;28;19924;-73
2023/10/14 11:23:57;;;;;;;;;;;;;;;18.16;50.27;101299.91;5036409;28;20198;-73
2023/10/14 11:26:23;;;;;;;;;;;;;;;16.68;55.97;101293.75;5052422;28;19997;-74
2023/10/14 11:28:48;;;;;;;;;;;;;;;15.86;62.14;101297.75;5058056;28;20013;-74
2023/10/14 11:31:17;;;;;;;;;;;;;;;15.32;64.32;101299.97;5035698;28;20403;-73
2023/10/14 11:33:46;;;;;;;;;;;;;;;15.44;69.75;101295.28;5056075;28;20504;-72
2023/10/14 11:36:17;;;;;;;;;;;;;;;17.11;62.84;101299.53;5038335;28;19920;-73
2023/10/14 11:38:43;;;;;;;;;;;;;;;18.98;58.80;101296.84;5037420;28;20429;-76
2023/10/14 11:41:10;;;;;;;;;;;;;;;19.81;50.35;101297.03;5056780;28;19924;-73
2023/10/14 11:43:35;;;;;;;;;;;;;;;21.20;46.37;101304.25;5042288;28;20086;-74
2023/10/14 11:46:00;;;;;;;;;;;;;;;22.20;45.43;101297.06;5042503;28;20050;-73
2023/10/14 11:48:26;;;;;;;;;;;;;;;22.67;45.62;101299.69;5016729;28;19924;-74
2023/10/14 11:50:58;;;;;;;;;;;;;;;20.81;42.04;101304.09;5032311;28;20381;-71
2023/10/14 11:53:31;;;;;;;;;;;;;;;19.10;45.12;101304.69;5051013;28;20011;-73
2023/10/14 11:55:59;;;;;;;;;;;;;;;18.01;49.99;101313.19;5053434;28;19920;-74
2023/10/14 11:58:28;;;;;;;;;;;;;;;17.74;50.84;101305.97;5032614;28;20198;-74
2023/10/14 12:00:54;;;;;;;;;;;;;;;17.89;52.65;101309.00;5033976;28;19930;-74
2023/10/14 12:03:19;;;;;;;;;;;;;;;19.98;50.09;101308.81;5031166;28;19925;-72
2023/10/14 12:05:44;;;;;;;;;;;;;;;20.95;45.99;101315.28;5051755;28;20142;-74
2023/10/14 12:08:10;;;;;;;;;;;;;;;21.57;46.20;101314.47;5051132;28;20014;-71
2023/10/14 12:10:35;;;;;;;;;;;;;;;21.62;43.05;101316.69;5051569;28;20385;-70
2023/10/14 12:13:00;;;;;;;;;;;;;;;22.46;41.28;101304.88;5051054;28;19946;-72
2023/10/14 12:15:27;;;;;;;;;;;;;;;22.37;41.45;101318.78;5052153;28;20010;-71
2023/10/14 12:17:53;;;;;;;;;;;;;;;22.59;41.02;101309.69;5033127;28;20003;-71
2023/10/14 12:20:19;;;;;;;;;;;;;;;22.73;40.42;101307.16;5035865;28;19966;-71
2023/10/14 12:22:47;;;;;;;;;;;;;;;22.38;41.74;101301.34;5055031;28;19927;-71
2023/10/14 12:25:13;;;;;;;;;;;;;;;22.74;38.76;101304.22;5037915;28;19920;-71
2023/10/14 12:27:39;;;;;;;;;;;;;;;23.16;40.41;101309.19;5052990;28;20584;-70
2023/10/14 12:30:07;;;;;;;;;;;;;;;21.11;43.46;101309.78;5053108;28;20362;-72
2023/10/14 12:32:32;;;;;;;;;;;;;;;19.86;46.14;101311.00;5032385;28;19963;-72
2023/10/14 12:35:01;;;;;;;;;;;;;;;18.85;48.81;101323.59;5033213;28;20343;-71
2023/10/14 12:37:28;;;;;;;;;;;;;;;19.59;46.88;101329.34;5057424;28;19924;-73
2023/10/14 12:40:11;;;;;;;;;;;;;;;20.38;43.70;101323.44;5053656;28;19920;-72
2023/10/14 12:42:45;;;;;;;;;;;;;;;20.87;42.98;101327.09;5040538;28;20410;-71
2023/10/14 12:45:13;;;;;;;;;;;;;;;21.91;41.68;101327.91;5049868;28;20023;-70
2023/10/14 12:47:46;;;;;;;;;;;;;;;21.81;40.32;101337.22;5038148;28;20016;-71
2023/10/14 12:50:13;;;;;;;;;;;;;;;22.35;39.56;101338.13;5049612;28;19932;-72
2023/10/14 12:52:38;;;;;;;;;;;;;;;22.36;39.19;101338.97;5028930;28;19925;-71
2023/10/14 12:55:13;;;;;;;;;;;;;;;22.81;37.60;101342.63;5015259;28;19920;-72